sensor_id;sensor_type;location;lat;lon;timestamp;pressure;altitude;pressure_sealevel;temperature;humidity
48652;BME280;34442;52.362;-1.302;2023-01-29T00:01:12;101674.25;;;5.64;100.00
48652;BME280;34442;52.362;-1.302;2023-01-29T00:03:39;101667.09;;;5.65;100.00
48652;BME280;34442;52.362;-1.302;2023-01-29T00:06:06;101667.78;;;5.67;100.00
48652;BME280;34442;52.362;-1.302;2023-01-29T00:08:36;101664.13;;;5.68;100.00
48652;BME280;34442;52.362;-1.302;2023-01-29T00:11:03;101664.25;;;5.66;100.00
48652;BME280;34442;52.362;-1.302;2023-01-29T00:13:29;101663.28;;;5.67;100.00
48652;BME280;34442;52.362;-1.302;2023-01-29T00:15:56;101664.13;;;5.68;100.00
48652;BME280;34442;52.362;-1.302;2023-01-29T00:18:23;101667.50;;;5.70;100.00
48652;BME280;34442;52.362;-1.302;2023-01-29T00:20:48;101667.66;;;5.68;100.00
48652;BME280;34442;52.362;-1.302;2023-01-29T00:23:13;101662.31;;;5.68;100.00
48652;BME280;34442;52.362;-1.302;2023-01-29T00:25:40;101657.81;;;5.69;100.00
48652;BME280;34442;52.362;-1.302;2023-01-29T00:28:05;101656.97;;;5.68;100.00
48652;BME280;34442;52.362;-1.302;2023-01-29T00:30:31;101650.81;;;5.68;100.00
48652;BME280;34442;52.362;-1.302;2023-01-29T00:32:56;101652.47;;;5.69;100.00
48652;BME280;34442;52.362;-1.302;2023-01-29T00:35:22;101658.66;;;5.69;100.00
48652;BME280;34442;52.362;-1.302;2023-01-29T00:37:47;101662.31;;;5.68;100.00
48652;BME280;34442;52.362;-1.302;2023-01-29T00:40:13;101662.31;;;5.68;100.00
48652;BME280;34442;52.362;-1.302;2023-01-29T00:42:38;101661.47;;;5.68;100.00
48652;BME280;34442;52.362;-1.302;2023-01-29T00:45:25;101664.13;;;5.68;100.00
48652;BME280;34442;52.362;-1.302;2023-01-29T00:47:50;101664.69;;;5.62;100.00
48652;BME280;34442;52.362;-1.302;2023-01-29T00:50:16;101665.41;;;5.64;100.00
48652;BME280;34442;52.362;-1.302;2023-01-29T00:52:41;101671.69;;;5.63;100.00
48652;BME280;34442;52.362;-1.302;2023-01-29T00:55:08;101676.75;;;5.66;100.00
48652;BME280;34442;52.362;-1.302;2023-01-29T00:57:35;101679.44;;;5.66;100.00
48652;BME280;34442;52.362;-1.302;2023-01-29T01:00:04;101679.44;;;5.66;100.00
48652;BME280;34442;52.362;-1.302;2023-01-29T01:02:30;101679.72;;;5.63;100.00
48652;BME280;34442;52.362;-1.302;2023-01-29T01:05:19;101677.03;;;5.63;100.00
48652;BME280;34442;52.362;-1.302;2023-01-29T01:07:50;101667.84;;;6.04;100.00
48652;BME280;34442;52.362;-1.302;2023-01-29T01:10:19;101658.63;;;5.99;100.00
48652;BME280;34442;52.362;-1.302;2023-01-29T01:12:45;101665.63;;;6.00;100.00
48652;BME280;34442;52.362;-1.302;2023-01-29T01:15:10;101661.56;;;5.86;100.00
48652;BME280;34442;52.362;-1.302;2023-01-29T01:17:36;101662.97;;;6.00;100.00
48652;BME280;34442;52.362;-1.302;2023-01-29T01:20:02;101654.28;;;5.97;100.00
48652;BME280;34442;52.362;-1.302;2023-01-29T01:22:28;101658.78;;;5.97;100.00
48652;BME280;34442;52.362;-1.302;2023-01-29T01:24:54;101652.84;;;6.03;100.00
48652;BME280;34442;52.362;-1.302;2023-01-29T01:27:19;101646.38;;;6.06;100.00
48652;BME280;34442;52.362;-1.302;2023-01-29T01:29:45;101634.69;;;6.07;100.00
48652;BME280;34442;52.362;-1.302;2023-01-29T01:32:11;101639.41;;;5.66;100.00
48652;BME280;34442;52.362;-1.302;2023-01-29T01:34:37;101638.81;;;6.01;100.00
48652;BME280;34442;52.362;-1.302;2023-01-29T01:37:02;101640.19;;;6.05;100.00
48652;BME280;34442;52.362;-1.302;2023-01-29T01:39:28;101636.72;;;5.76;100.00
48652;BME280;34442;52.362;-1.302;2023-01-29T01:41:54;101636.47;;;5.59;100.00
48652;BME280;34442;52.362;-1.302;2023-01-29T01:47:34;101635.38;;;5.52;100.00
48652;BME280;34442;52.362;-1.302;2023-01-29T01:53:31;101622.72;;;5.54;100.00
48652;BME280;34442;52.362;-1.302;2023-01-29T01:56:02;101622.44;;;5.57;100.00
48652;BME280;34442;52.362;-1.302;2023-01-29T01:58:33;101618.22;;;5.55;100.00
48652;BME280;34442;52.362;-1.302;2023-01-29T02:01:02;101611.78;;;5.57;100.00
48652;BME280;34442;52.362;-1.302;2023-01-29T02:03:34;101609.94;;;5.58;100.00
48652;BME280;34442;52.362;-1.302;2023-01-29T02:06:20;101609.94;;;5.58;100.00
48652;BME280;34442;52.362;-1.302;2023-01-29T02:09:09;101609.41;;;5.54;100.00
48652;BME280;34442;52.362;-1.302;2023-01-29T02:11:54;101605.50;;;5.95;100.00
48652;BME280;34442;52.362;-1.302;2023-01-29T02:14:20;101599.28;;;6.05;100.00
48652;BME280;34442;52.362;-1.302;2023-01-29T02:16:46;101597.97;;;5.71;100.00
48652;BME280;34442;52.362;-1.302;2023-01-29T02:24:58;101580.59;;;5.58;100.00
48652;BME280;34442;52.362;-1.302;2023-01-29T02:32:58;101586.72;;;5.97;100.00
48652;BME280;34442;52.362;-1.302;2023-01-29T02:35:36;101574.59;;;6.03;100.00
48652;BME280;34442;52.362;-1.302;2023-01-29T02:38:29;101567.56;;;6.02;100.00
48652;BME280;34442;52.362;-1.302;2023-01-29T02:41:04;101562.06;;;6.03;100.00
48652;BME280;34442;52.362;-1.302;2023-01-29T02:43:46;101569.41;;;6.01;100.00
48652;BME280;34442;52.362;-1.302;2023-01-29T02:46:31;101563.66;;;5.96;100.00
48652;BME280;34442;52.362;-1.302;2023-01-29T02:51:46;101569.16;;;5.94;100.00
48652;BME280;34442;52.362;-1.302;2023-01-29T02:54:24;101561.81;;;5.96;100.00
48652;BME280;34442;52.362;-1.302;2023-01-29T02:56:57;101552.44;;;5.92;100.00
48652;BME280;34442;52.362;-1.302;2023-01-29T02:59:28;101550.47;;;5.47;100.00
48652;BME280;34442;52.362;-1.302;2023-01-29T03:02:37;101537.16;;;5.75;100.00
48652;BME280;34442;52.362;-1.302;2023-01-29T03:05:07;101533.03;;;5.90;100.00
48652;BME280;34442;52.362;-1.302;2023-01-29T03:07:39;101537.13;;;5.47;100.00
48652;BME280;34442;52.362;-1.302;2023-01-29T03:10:16;101536.31;;;5.37;100.00
48652;BME280;34442;52.362;-1.302;2023-01-29T03:12:47;101527.63;;;5.35;100.00
48652;BME280;34442;52.362;-1.302;2023-01-29T03:15:20;101533.38;;;5.31;100.00
48652;BME280;34442;52.362;-1.302;2023-01-29T03:17:57;101532.69;;;5.29;100.00
48652;BME280;34442;52.362;-1.302;2023-01-29T03:20:31;101524.69;;;5.29;100.00
48652;BME280;34442;52.362;-1.302;2023-01-29T03:23:03;101517.69;;;5.28;100.00
48652;BME280;34442;52.362;-1.302;2023-01-29T03:25:30;101521.75;;;5.22;100.00
48652;BME280;34442;52.362;-1.302;2023-01-29T03:28:16;101521.22;;;5.18;100.00
48652;BME280;34442;52.362;-1.302;2023-01-29T03:31:05;101506.88;;;5.10;100.00
48652;BME280;34442;52.362;-1.302;2023-01-29T03:33:55;101505.50;;;5.06;100.00
48652;BME280;34442;52.362;-1.302;2023-01-29T03:36:31;101513.78;;;5.12;100.00
48652;BME280;34442;52.362;-1.302;2023-01-29T03:39:06;101520.94;;;5.12;100.00
48652;BME280;34442;52.362;-1.302;2023-01-29T03:41:52;101513.63;;;5.14;100.00
48652;BME280;34442;52.362;-1.302;2023-01-29T03:50:14;101517.44;;;5.11;100.00
48652;BME280;34442;52.362;-1.302;2023-01-29T03:52:46;101511.13;;;5.03;100.00
48652;BME280;34442;52.362;-1.302;2023-01-29T03:55:19;101514.22;;;5.08;100.00
48652;BME280;34442;52.362;-1.302;2023-01-29T03:58:49;101502.56;;;5.09;100.00
48652;BME280;34442;52.362;-1.302;2023-01-29T04:00:58;101496.53;;;5.07;100.00
48652;BME280;34442;52.362;-1.302;2023-01-29T04:03:33;101496.53;;;5.07;100.00
48652;BME280;34442;52.362;-1.302;2023-01-29T04:06:12;101491.88;;;5.09;100.00
48652;BME280;34442;52.362;-1.302;2023-01-29T04:08:47;101495.69;;;5.06;100.00
48652;BME280;34442;52.362;-1.302;2023-01-29T04:11:17;101482.50;;;5.05;100.00
48652;BME280;34442;52.362;-1.302;2023-01-29T04:13:44;101474.50;;;5.05;100.00
48652;BME280;34442;52.362;-1.302;2023-01-29T04:16:15;101467.34;;;5.05;100.00
48652;BME280;34442;52.362;-1.302;2023-01-29T04:18:46;101481.38;;;5.07;100.00
48652;BME280;34442;52.362;-1.302;2023-01-29T04:21:13;101476.75;;;5.09;100.00
48652;BME280;34442;52.362;-1.302;2023-01-29T04:23:38;101458.91;;;5.10;100.00
48652;BME280;34442;52.362;-1.302;2023-01-29T04:29:17;101463.13;;;5.12;100.00
48652;BME280;34442;52.362;-1.302;2023-01-29T04:32:08;101471.13;;;5.12;100.00
48652;BME280;34442;52.362;-1.302;2023-01-29T04:39:57;101476.63;;;5.11;100.00
48652;BME280;34442;52.362;-1.302;2023-01-29T04:45:38;101452.63;;;5.11;100.00
48652;BME280;34442;52.362;-1.302;2023-01-29T04:48:23;101433.81;;;5.12;100.00
48652;BME280;34442;52.362;-1.302;2023-01-29T04:53:49;101441.81;;;5.12;100.00
48652;BME280;34442;52.362;-1.302;2023-01-29T04:56:27;101438.03;;;5.15;100.00
48652;BME280;34442;52.362;-1.302;2023-01-29T04:59:06;101433.66;;;5.14;100.00
48652;BME280;34442;52.362;-1.302;2023-01-29T05:01:34;101430.16;;;5.13;100.00
48652;BME280;34442;52.362;-1.302;2023-01-29T05:04:19;101423.00;;;5.14;100.00
48652;BME280;34442;52.362;-1.302;2023-01-29T05:06:45;101423.88;;;5.14;100.00
48652;BME280;34442;52.362;-1.302;2023-01-29T05:09:15;101413.19;;;5.14;100.00
48652;BME280;34442;52.362;-1.302;2023-01-29T05:11:44;101406.72;;;5.17;100.00
48652;BME280;34442;52.362;-1.302;2023-01-29T05:14:12;101402.38;;;5.16;100.00
48652;BME280;34442;52.362;-1.302;2023-01-29T05:16:42;101401.00;;;5.12;100.00
48652;BME280;34442;52.362;-1.302;2023-01-29T05:19:14;101397.50;;;5.11;100.00
48652;BME280;34442;52.362;-1.302;2023-01-29T05:21:43;101398.34;;;5.12;100.00
48652;BME280;34442;52.362;-1.302;2023-01-29T05:24:14;101398.34;;;5.12;100.00
48652;BME280;34442;52.362;-1.302;2023-01-29T05:26:42;101395.66;;;5.12;100.00
48652;BME280;34442;52.362;-1.302;2023-01-29T05:29:26;101390.88;;;5.15;100.00
48652;BME280;34442;52.362;-1.302;2023-01-29T05:31:52;101396.06;;;5.17;100.00
48652;BME280;34442;52.362;-1.302;2023-01-29T05:34:17;101390.44;;;5.20;100.00
48652;BME280;34442;52.362;-1.302;2023-01-29T05:36:43;101389.44;;;5.21;100.00
48652;BME280;34442;52.362;-1.302;2023-01-29T05:39:08;101382.00;;;5.25;100.00
48652;BME280;34442;52.362;-1.302;2023-01-29T05:41:33;101392.13;;;5.21;100.00
48652;BME280;34442;52.362;-1.302;2023-01-29T05:43:59;101377.78;;;5.22;100.00
48652;BME280;34442;52.362;-1.302;2023-01-29T05:46:24;101371.63;;;5.21;100.00
48652;BME280;34442;52.362;-1.302;2023-01-29T05:48:51;101367.84;;;5.24;100.00
48652;BME280;34442;52.362;-1.302;2023-01-29T05:51:17;101368.41;;;5.18;100.00
48652;BME280;34442;52.362;-1.302;2023-01-29T05:53:43;101367.28;;;5.20;100.00
48652;BME280;34442;52.362;-1.302;2023-01-29T05:56:08;101364.63;;;5.20;100.00
48652;BME280;34442;52.362;-1.302;2023-01-29T05:58:33;101355.63;;;5.21;100.00
48652;BME280;34442;52.362;-1.302;2023-01-29T06:03:34;101359.13;;;5.22;100.00
48652;BME280;34442;52.362;-1.302;2023-01-29T06:06:01;101357.00;;;5.26;100.00
48652;BME280;34442;52.362;-1.302;2023-01-29T06:08:26;101355.19;;;5.26;100.00
48652;BME280;34442;52.362;-1.302;2023-01-29T06:10:52;101354.50;;;5.24;100.00
48652;BME280;34442;52.362;-1.302;2023-01-29T06:13:17;101351.69;;;5.26;100.00
48652;BME280;34442;52.362;-1.302;2023-01-29T06:15:42;101347.34;;;5.25;100.00
48652;BME280;34442;52.362;-1.302;2023-01-29T06:18:08;101346.69;;;5.22;100.00
48652;BME280;34442;52.362;-1.302;2023-01-29T06:20:33;101352.97;;;5.21;100.00
48652;BME280;34442;52.362;-1.302;2023-01-29T06:22:59;101350.47;;;5.20;100.00
48652;BME280;34442;52.362;-1.302;2023-01-29T06:25:24;101349.63;;;5.19;100.00
48652;BME280;34442;52.362;-1.302;2023-01-29T06:27:50;101340.63;;;5.20;100.00
48652;BME280;34442;52.362;-1.302;2023-01-29T06:30:16;101338.81;;;5.21;100.00
48652;BME280;34442;52.362;-1.302;2023-01-29T06:32:41;101332.94;;;5.17;100.00
48652;BME280;34442;52.362;-1.302;2023-01-29T06:35:07;101335.91;;;5.14;100.00
48652;BME280;34442;52.362;-1.302;2023-01-29T06:37:34;101349.38;;;5.13;100.00
48652;BME280;34442;52.362;-1.302;2023-01-29T06:39:59;101339.69;;;5.12;100.00
48652;BME280;34442;52.362;-1.302;2023-01-29T06:42:24;101334.91;;;5.15;100.00
48652;BME280;34442;52.362;-1.302;2023-01-29T06:44:55;101330.72;;;5.13;100.00
48652;BME280;34442;52.362;-1.302;2023-01-29T06:47:22;101326.22;;;5.13;100.00
48652;BME280;34442;52.362;-1.302;2023-01-29T06:49:48;101322.59;;;5.14;100.00
48652;BME280;34442;52.362;-1.302;2023-01-29T06:52:13;101325.94;;;5.16;100.00
48652;BME280;34442;52.362;-1.302;2023-01-29T06:54:38;101320.16;;;5.21;100.00
48652;BME280;34442;52.362;-1.302;2023-01-29T06:57:04;101329.31;;;5.18;100.00
48652;BME280;34442;52.362;-1.302;2023-01-29T06:59:29;101332.09;;;5.17;100.00
48652;BME280;34442;52.362;-1.302;2023-01-29T07:01:55;101322.69;;;5.22;100.00
48652;BME280;34442;52.362;-1.302;2023-01-29T07:04:20;101329.97;;;5.20;100.00
48652;BME280;34442;52.362;-1.302;2023-01-29T07:06:45;101316.09;;;5.17;100.00
48652;BME280;34442;52.362;-1.302;2023-01-29T07:09:12;101324.09;;;5.17;100.00
48652;BME280;34442;52.362;-1.302;2023-01-29T07:11:38;101317.78;;;5.18;100.00
48652;BME280;34442;52.362;-1.302;2023-01-29T07:14:04;101326.31;;;5.21;100.00
48652;BME280;34442;52.362;-1.302;2023-01-29T07:16:30;101312.03;;;5.22;100.00
48652;BME280;34442;52.362;-1.302;2023-01-29T07:18:56;101325.34;;;5.22;100.00
48652;BME280;34442;52.362;-1.302;2023-01-29T07:21:21;101311.31;;;5.20;100.00
48652;BME280;34442;52.362;-1.302;2023-01-29T07:23:47;101316.34;;;5.23;100.00
48652;BME280;34442;52.362;-1.302;2023-01-29T07:26:12;101313.16;;;5.20;100.00
48652;BME280;34442;52.362;-1.302;2023-01-29T07:28:38;101303.31;;;5.20;100.00
48652;BME280;34442;52.362;-1.302;2023-01-29T07:31:04;101307.19;;;5.26;100.00
48652;BME280;34442;52.362;-1.302;2023-01-29T07:33:30;101305.38;;;5.27;100.00
48652;BME280;34442;52.362;-1.302;2023-01-29T07:35:55;101302.56;;;5.28;100.00
48652;BME280;34442;52.362;-1.302;2023-01-29T07:38:21;101301.41;;;5.31;100.00
48652;BME280;34442;52.362;-1.302;2023-01-29T07:40:46;101304.94;;;5.31;100.00
48652;BME280;34442;52.362;-1.302;2023-01-29T07:43:13;101307.47;;;5.33;100.00
48652;BME280;34442;52.362;-1.302;2023-01-29T07:45:38;101306.06;;;5.29;100.00
48652;BME280;34442;52.362;-1.302;2023-01-29T07:48:05;101303.56;;;5.27;100.00
48652;BME280;34442;52.362;-1.302;2023-01-29T07:50:33;101306.25;;;5.27;100.00
48652;BME280;34442;52.362;-1.302;2023-01-29T07:52:59;101313.78;;;5.32;100.00
48652;BME280;34442;52.362;-1.302;2023-01-29T07:55:25;101309.75;;;5.28;100.00
48652;BME280;34442;52.362;-1.302;2023-01-29T07:58:02;101306.63;;;5.32;100.00
48652;BME280;34442;52.362;-1.302;2023-01-29T08:00:29;101312.69;;;5.25;100.00
48652;BME280;34442;52.362;-1.302;2023-01-29T08:03:06;101306.75;;;5.31;100.00
48652;BME280;34442;52.362;-1.302;2023-01-29T08:05:32;101311.56;;;5.27;100.00
48652;BME280;34442;52.362;-1.302;2023-01-29T08:07:58;101309.88;;;5.26;100.00
48652;BME280;34442;52.362;-1.302;2023-01-29T08:10:23;101300.03;;;5.27;100.00
48652;BME280;34442;52.362;-1.302;2023-01-29T08:12:56;101301.41;;;5.31;100.00
48652;BME280;34442;52.362;-1.302;2023-01-29T08:15:22;101306.25;;;5.27;100.00
48652;BME280;34442;52.362;-1.302;2023-01-29T08:17:48;101297.25;;;5.28;100.00
48652;BME280;34442;52.362;-1.302;2023-01-29T08:20:13;101303.25;;;5.30;100.00
48652;BME280;34442;52.362;-1.302;2023-01-29T08:22:39;101293.59;;;5.29;100.00
48652;BME280;34442;52.362;-1.302;2023-01-29T08:25:04;101295.25;;;5.30;100.00
48652;BME280;34442;52.362;-1.302;2023-01-29T08:27:30;101294.13;;;5.33;100.00
48652;BME280;34442;52.362;-1.302;2023-01-29T08:29:55;101298.09;;;5.46;100.00
48652;BME280;34442;52.362;-1.302;2023-01-29T08:32:20;101302.22;;;5.41;100.00
48652;BME280;34442;52.362;-1.302;2023-01-29T08:34:46;101305.34;;;5.36;100.00
48652;BME280;34442;52.362;-1.302;2023-01-29T08:37:11;101305.78;;;5.32;100.00
48652;BME280;34442;52.362;-1.302;2023-01-29T08:39:36;101300.84;;;5.37;100.00
48652;BME280;34442;52.362;-1.302;2023-01-29T08:42:02;101303.88;;;5.42;100.00
48652;BME280;34442;52.362;-1.302;2023-01-29T08:44:27;101291.81;;;5.47;100.00
48652;BME280;34442;52.362;-1.302;2023-01-29T08:46:53;101295.97;;;5.50;100.00
48652;BME280;34442;52.362;-1.302;2023-01-29T08:49:18;101292.19;;;5.53;100.00
48652;BME280;34442;52.362;-1.302;2023-01-29T08:51:43;101287.69;;;5.53;100.00
48652;BME280;34442;52.362;-1.302;2023-01-29T08:54:09;101294.00;;;5.52;100.00
48652;BME280;34442;52.362;-1.302;2023-01-29T08:56:34;101290.19;;;5.55;100.00
48652;BME280;34442;52.362;-1.302;2023-01-29T08:59:00;101287.53;;;5.55;100.00
48652;BME280;34442;52.362;-1.302;2023-01-29T09:01:25;101296.88;;;5.59;100.00
48652;BME280;34442;52.362;-1.302;2023-01-29T09:03:50;101301.69;;;5.55;100.00
48652;BME280;34442;52.362;-1.302;2023-01-29T09:06:17;101309.00;;;5.53;100.00
48652;BME280;34442;52.362;-1.302;2023-01-29T09:08:42;101310.56;;;5.56;100.00
48652;BME280;34442;52.362;-1.302;2023-01-29T09:11:08;101304.34;;;5.55;100.00
48652;BME280;34442;52.362;-1.302;2023-01-29T09:13:33;101309.69;;;5.55;100.00
48652;BME280;34442;52.362;-1.302;2023-01-29T09:16:00;101309.56;;;5.57;100.00
48652;BME280;34442;52.362;-1.302;2023-01-29T09:18:27;101303.53;;;5.55;100.00
48652;BME280;34442;52.362;-1.302;2023-01-29T09:20:52;101307.19;;;5.54;100.00
48652;BME280;34442;52.362;-1.302;2023-01-29T09:23:18;101312.97;;;5.49;100.00
48652;BME280;34442;52.362;-1.302;2023-01-29T09:25:43;101312.97;;;5.49;100.00
48652;BME280;34442;52.362;-1.302;2023-01-29T09:28:09;101313.66;;;5.51;100.00
48652;BME280;34442;52.362;-1.302;2023-01-29T09:30:34;101305.50;;;5.53;100.00
48652;BME280;34442;52.362;-1.302;2023-01-29T09:33:03;101304.50;;;5.54;100.00
48652;BME280;34442;52.362;-1.302;2023-01-29T09:35:28;101303.06;;;5.59;100.00
48652;BME280;34442;52.362;-1.302;2023-01-29T09:37:54;101306.59;;;5.60;100.00
48652;BME280;34442;52.362;-1.302;2023-01-29T09:43:06;101299.50;;;5.68;100.00
48652;BME280;34442;52.362;-1.302;2023-01-29T09:45:34;101293.19;;;5.69;100.00
48652;BME280;34442;52.362;-1.302;2023-01-29T09:48:02;101290.34;;;5.71;100.00
48652;BME280;34442;52.362;-1.302;2023-01-29T09:50:37;101288.91;;;5.77;100.00
48652;BME280;34442;52.362;-1.302;2023-01-29T09:55:41;101289.00;;;5.85;100.00
48652;BME280;34442;52.362;-1.302;2023-01-29T10:01:06;101288.63;;;5.97;100.00
48652;BME280;34442;52.362;-1.302;2023-01-29T10:04:03;101279.84;;;6.05;100.00
48652;BME280;34442;52.362;-1.302;2023-01-29T10:17:48;101273.38;;;6.34;100.00
48652;BME280;34442;52.362;-1.302;2023-01-29T10:20:42;101274.63;;;6.47;100.00
48652;BME280;34442;52.362;-1.302;2023-01-29T10:25:45;101258.47;;;6.57;100.00
48652;BME280;34442;52.362;-1.302;2023-01-29T10:28:17;101253.19;;;6.65;100.00
48652;BME280;34442;52.362;-1.302;2023-01-29T10:30:48;101258.69;;;6.64;100.00
48652;BME280;34442;52.362;-1.302;2023-01-29T10:33:25;101246.34;;;6.63;100.00
48652;BME280;34442;52.362;-1.302;2023-01-29T10:36:02;101244.16;;;6.66;100.00
48652;BME280;34442;52.362;-1.302;2023-01-29T10:38:37;101241.03;;;6.71;100.00
48652;BME280;34442;52.362;-1.302;2023-01-29T10:41:19;101230.34;;;6.71;100.00
48652;BME280;34442;52.362;-1.302;2023-01-29T10:52:42;101223.47;;;6.68;100.00
48652;BME280;34442;52.362;-1.302;2023-01-29T10:58:15;101217.97;;;6.70;100.00
48652;BME280;34442;52.362;-1.302;2023-01-29T11:00:44;101225.47;;;6.66;100.00
48652;BME280;34442;52.362;-1.302;2023-01-29T11:03:30;101219.66;;;6.71;100.00
48652;BME280;34442;52.362;-1.302;2023-01-29T11:06:25;101218.34;;;6.75;100.00
48652;BME280;34442;52.362;-1.302;2023-01-29T11:11:53;101217.56;;;6.99;100.00
48652;BME280;34442;52.362;-1.302;2023-01-29T11:14:50;101209.75;;;7.06;100.00
48652;BME280;34442;52.362;-1.302;2023-01-29T11:17:20;101204.06;;;7.09;100.00
48652;BME280;34442;52.362;-1.302;2023-01-29T11:19:48;101197.41;;;7.13;100.00
48652;BME280;34442;52.362;-1.302;2023-01-29T11:22:21;101210.09;;;7.11;100.00
48652;BME280;34442;52.362;-1.302;2023-01-29T11:25:14;101199.06;;;7.14;100.00
48652;BME280;34442;52.362;-1.302;2023-01-29T11:27:52;101194.22;;;7.09;100.00
48652;BME280;34442;52.362;-1.302;2023-01-29T11:30:23;101183.72;;;7.16;100.00
48652;BME280;34442;52.362;-1.302;2023-01-29T11:32:54;101188.38;;;7.14;100.00
48652;BME280;34442;52.362;-1.302;2023-01-29T11:35:24;101177.66;;;7.06;100.00
48652;BME280;34442;52.362;-1.302;2023-01-29T11:37:49;101176.34;;;7.10;100.00
48652;BME280;34442;52.362;-1.302;2023-01-29T11:42:44;101170.97;;;7.02;100.00
48652;BME280;34442;52.362;-1.302;2023-01-29T11:45:27;101157.94;;;7.07;100.00
48652;BME280;34442;52.362;-1.302;2023-01-29T11:47:55;101141.41;;;7.28;100.00
48652;BME280;34442;52.362;-1.302;2023-01-29T11:50:31;101139.09;;;7.41;100.00
48652;BME280;34442;52.362;-1.302;2023-01-29T11:52:58;101130.41;;;7.39;100.00
48652;BME280;34442;52.362;-1.302;2023-01-29T11:55:30;101130.91;;;7.42;100.00
48652;BME280;34442;52.362;-1.302;2023-01-29T11:58:05;101113.00;;;7.51;100.00
48652;BME280;34442;52.362;-1.302;2023-01-29T12:00:38;101099.63;;;7.59;100.00
48652;BME280;34442;52.362;-1.302;2023-01-29T12:05:37;101082.56;;;7.60;100.00
48652;BME280;34442;52.362;-1.302;2023-01-29T12:08:14;101078.72;;;7.55;100.00
48652;BME280;34442;52.362;-1.302;2023-01-29T12:10:41;101075.34;;;7.61;100.00
48652;BME280;34442;52.362;-1.302;2023-01-29T12:15:42;101072.34;;;7.72;100.00
48652;BME280;34442;52.362;-1.302;2023-01-29T12:18:39;101060.44;;;7.83;100.00
48652;BME280;34442;52.362;-1.302;2023-01-29T12:21:13;101046.34;;;7.89;100.00
48652;BME280;34442;52.362;-1.302;2023-01-29T12:26:36;101040.47;;;7.93;100.00
48652;BME280;34442;52.362;-1.302;2023-01-29T12:35:20;101027.16;;;7.77;100.00
48652;BME280;34442;52.362;-1.302;2023-01-29T12:40:20;101021.25;;;7.90;100.00
48652;BME280;34442;52.362;-1.302;2023-01-29T12:42:54;101029.72;;;8.02;100.00
48652;BME280;34442;52.362;-1.302;2023-01-29T12:45:23;101026.41;;;8.31;100.00
48652;BME280;34442;52.362;-1.302;2023-01-29T12:47:52;101019.47;;;8.53;100.00
48652;BME280;34442;52.362;-1.302;2023-01-29T12:50:23;101025.06;;;8.66;100.00
48652;BME280;34442;52.362;-1.302;2023-01-29T12:55:23;101017.09;;;8.81;100.00
48652;BME280;34442;52.362;-1.302;2023-01-29T12:58:01;101011.25;;;8.77;100.00
48652;BME280;34442;52.362;-1.302;2023-01-29T13:00:31;101005.16;;;8.83;100.00
48652;BME280;34442;52.362;-1.302;2023-01-29T13:08:47;100989.16;;;8.75;100.00
48652;BME280;34442;52.362;-1.302;2023-01-29T13:11:24;100995.94;;;8.63;100.00
48652;BME280;34442;52.362;-1.302;2023-01-29T13:14:00;101000.53;;;8.54;100.00
48652;BME280;34442;52.362;-1.302;2023-01-29T13:16:31;100999.03;;;8.52;100.00
48652;BME280;34442;52.362;-1.302;2023-01-29T13:19:01;101015.09;;;8.52;100.00
48652;BME280;34442;52.362;-1.302;2023-01-29T13:21:46;100996.47;;;8.58;100.00
48652;BME280;34442;52.362;-1.302;2023-01-29T13:24:17;101002.97;;;8.64;100.00
48652;BME280;34442;52.362;-1.302;2023-01-29T13:26:45;100986.88;;;8.64;100.00
48652;BME280;34442;52.362;-1.302;2023-01-29T13:31:47;100968.19;;;8.56;100.00
48652;BME280;34442;52.362;-1.302;2023-01-29T13:37:01;100960.69;;;8.51;100.00
48652;BME280;34442;52.362;-1.302;2023-01-29T13:39:38;100954.78;;;8.56;100.00
48652;BME280;34442;52.362;-1.302;2023-01-29T13:42:17;100957.03;;;8.67;100.00
48652;BME280;34442;52.362;-1.302;2023-01-29T13:44:47;100950.97;;;8.73;100.00
48652;BME280;34442;52.362;-1.302;2023-01-29T13:47:31;100936.84;;;8.79;100.00
48652;BME280;34442;52.362;-1.302;2023-01-29T13:50:01;100928.25;;;8.84;100.00
48652;BME280;34442;52.362;-1.302;2023-01-29T13:55:39;100925.13;;;8.95;100.00
48652;BME280;34442;52.362;-1.302;2023-01-29T13:58:18;100921.03;;;8.84;100.00
48652;BME280;34442;52.362;-1.302;2023-01-29T14:01:02;100913.00;;;8.84;100.00
48652;BME280;34442;52.362;-1.302;2023-01-29T14:13:41;100913.72;;;8.78;100.00
48652;BME280;34442;52.362;-1.302;2023-01-29T14:18:44;100905.34;;;8.81;100.00
48652;BME280;34442;52.362;-1.302;2023-01-29T14:21:23;100892.41;;;8.85;100.00
48652;BME280;34442;52.362;-1.302;2023-01-29T14:23:53;100902.66;;;8.81;100.00
48652;BME280;34442;52.362;-1.302;2023-01-29T14:26:22;100892.56;;;8.83;100.00
48652;BME280;34442;52.362;-1.302;2023-01-29T14:28:55;100888.50;;;8.87;100.00
48652;BME280;34442;52.362;-1.302;2023-01-29T14:31:42;100888.78;;;8.92;100.00
48652;BME280;34442;52.362;-1.302;2023-01-29T14:34:21;100891.31;;;8.94;100.00
48652;BME280;34442;52.362;-1.302;2023-01-29T14:36:50;100890.47;;;8.93;100.00
48652;BME280;34442;52.362;-1.302;2023-01-29T14:41:54;100884.28;;;8.93;100.00
48652;BME280;34442;52.362;-1.302;2023-01-29T14:49:54;100872.25;;;8.89;100.00
48652;BME280;34442;52.362;-1.302;2023-01-29T14:52:25;100870.75;;;8.86;100.00
48652;BME280;34442;52.362;-1.302;2023-01-29T14:54:56;100855.03;;;8.83;100.00
48652;BME280;34442;52.362;-1.302;2023-01-29T14:57:22;100854.47;;;8.88;100.00
48652;BME280;34442;52.362;-1.302;2023-01-29T14:59:59;100851.06;;;8.94;100.00
48652;BME280;34442;52.362;-1.302;2023-01-29T15:02:31;100847.56;;;8.93;100.00
48652;BME280;34442;52.362;-1.302;2023-01-29T15:05:06;100845.16;;;8.99;100.00
48652;BME280;34442;52.362;-1.302;2023-01-29T15:07:41;100839.59;;;9.00;100.00
48652;BME280;34442;52.362;-1.302;2023-01-29T15:10:20;100836.28;;;8.98;100.00
48652;BME280;34442;52.362;-1.302;2023-01-29T15:13:16;100842.84;;;8.95;100.00
48652;BME280;34442;52.362;-1.302;2023-01-29T15:15:50;100833.97;;;8.95;100.00